Time;durP1;ratioP1;P1;durP2;ratioP2;P2;SDS_P1;SDS_P2;PMS_P1;PMS_P2;Temp;Humidity;BMP_temperature;BMP_pressure;BME280_temperature;BME280_humidity;BME280_pressure;Samples;Min_cycle;Max_cycle;Signal;HPM_P1;HPM_P2
2023/03/26 00:00:48;;;;;;;17.25;4.95;;;7.60;99.90;;;;;;4986438;28;20437;-67
2023/03/26 00:03:16;;;;;;;21.27;4.13;;;7.60;99.90;;;;;;4981116;28;20913;-68
2023/03/26 00:05:43;;;;;;;18.55;4.43;;;7.50;99.90;;;;;;4966688;28;20843;-67
2023/03/26 00:08:09;;;;;;;18.25;3.90;;;7.40;99.90;;;;;;4967644;28;20986;-68
2023/03/26 00:10:37;;;;;;;15.05;4.25;;;7.50;99.90;;;;;;4967484;28;20424;-69
2023/03/26 00:13:04;;;;;;;25.77;5.32;;;7.40;99.90;;;;;;4982278;28;20493;-68
2023/03/26 00:15:31;;;;;;;18.88;4.00;;;7.30;99.90;;;;;;4974214;28;20525;-68
2023/03/26 00:17:57;;;;;;;19.35;4.35;;;7.30;99.90;;;;;;4968115;28;20427;-69
2023/03/26 00:20:23;;;;;;;21.52;5.20;;;7.30;99.90;;;;;;4975678;28;20884;-68
2023/03/26 00:22:49;;;;;;;22.20;4.40;;;7.30;99.90;;;;;;4986685;28;20803;-69
2023/03/26 00:25:16;;;;;;;24.40;5.35;;;7.30;99.90;;;;;;4982082;28;20438;-68
2023/03/26 00:27:44;;;;;;;20.48;5.28;;;7.30;99.90;;;;;;4985563;28;20506;-68
2023/03/26 00:30:10;;;;;;;19.90;4.85;;;7.30;99.90;;;;;;4975069;28;20428;-68
2023/03/26 00:32:36;;;;;;;15.83;3.90;;;7.20;99.90;;;;;;4974173;28;20468;-68
2023/03/26 00:35:02;;;;;;;22.05;4.82;;;7.30;99.90;;;;;;4975074;28;20479;-68
2023/03/26 00:37:29;;;;;;;17.85;4.35;;;7.30;99.90;;;;;;4979872;28;20436;-68
2023/03/26 00:40:09;;;;;;;15.98;4.00;;;7.40;99.90;;;;;;4982804;28;20498;-68
2023/03/26 00:42:35;;;;;;;19.33;5.18;;;7.50;99.90;;;;;;4982261;28;20467;-69
2023/03/26 00:45:00;;;;;;;21.05;4.63;;;7.40;99.90;;;;;;4982594;28;20490;-67
2023/03/26 00:47:27;;;;;;;22.57;3.77;;;7.40;99.90;;;;;;4971177;28;20439;-68
2023/03/26 00:49:54;;;;;;;19.53;4.63;;;7.40;99.90;;;;;;4972860;28;21025;-70
2023/03/26 00:52:20;;;;;;;17.35;3.60;;;7.40;99.90;;;;;;4970603;28;20543;-69
2023/03/26 00:54:52;;;;;;;19.60;4.05;;;7.50;99.90;;;;;;4972473;28;20435;-68
2023/03/26 00:57:22;;;;;;;21.38;4.35;;;7.40;99.90;;;;;;4982584;28;20573;-68
2023/03/26 00:59:50;;;;;;;16.70;4.57;;;7.40;99.90;;;;;;4976800;28;20495;-69
2023/03/26 01:02:19;;;;;;;17.60;4.25;;;7.50;99.90;;;;;;4972704;28;20436;-68
2023/03/26 01:04:55;;;;;;;19.02;5.15;;;7.50;99.90;;;;;;4981158;28;20896;-69
2023/03/26 01:07:27;;;;;;;23.45;4.22;;;7.40;99.90;;;;;;4968814;28;20942;-68
2023/03/26 01:09:56;;;;;;;15.68;3.40;;;7.40;99.90;;;;;;5065251;22;20908;-79
2023/03/26 01:12:26;;;;;;;25.67;5.97;;;7.40;99.90;;;;;;5006011;28;20587;-80
2023/03/26 01:14:55;;;;;;;23.43;4.23;;;7.60;99.90;;;;;;5007874;28;20782;-81
2023/03/26 01:17:22;;;;;;;22.55;3.60;;;7.50;99.90;;;;;;5007153;28;20424;-81
2023/03/26 01:20:21;;;;;;;21.45;4.40;;;7.60;99.90;;;;;;5008828;28;20440;-81
2023/03/26 01:22:52;;;;;;;19.75;3.65;;;7.40;99.90;;;;;;5009033;28;20494;-77
2023/03/26 01:25:20;;;;;;;18.15;4.68;;;7.40;99.90;;;;;;5010057;28;20994;-82
2023/03/26 01:27:52;;;;;;;18.77;4.35;;;7.60;99.90;;;;;;5010826;28;20436;-80
2023/03/26 01:30:27;;;;;;;20.92;5.10;;;7.50;99.90;;;;;;5008226;28;20440;-81
2023/03/26 01:33:01;;;;;;;16.90;4.43;;;7.50;99.90;;;;;;5009832;28;20481;-82
2023/03/26 01:36:02;;;;;;;26.05;6.32;;;7.40;99.90;;;;;;5009307;28;20447;-79
2023/03/26 01:38:36;;;;;;;17.88;3.67;;;7.30;99.90;;;;;;4967452;28;20436;-76
2023/03/26 01:41:29;;;;;;;22.73;4.18;;;7.30;99.90;;;;;;5006596;28;20429;-80
2023/03/26 01:44:03;;;;;;;19.80;4.55;;;7.30;99.90;;;;;;5009915;28;20443;-82
2023/03/26 01:46:34;;;;;;;24.27;4.67;;;7.20;99.90;;;;;;5007608;28;20425;-81
2023/03/26 01:49:04;;;;;;;23.50;5.57;;;7.30;99.90;;;;;;5009851;28;20977;-81
2023/03/26 01:51:33;;;;;;;27.85;5.75;;;7.20;99.90;;;;;;5008852;28;20519;-82
2023/03/26 01:54:03;;;;;;;30.83;5.70;;;7.10;99.90;;;;;;5006923;28;20436;-80
2023/03/26 01:56:50;;;;;;;15.65;4.10;;;7.10;99.90;;;;;;5007734;28;20472;-82
2023/03/26 01:59:29;;;;;;;19.75;4.32;;;7.00;99.90;;;;;;5007509;28;20431;-77
2023/03/26 02:02:03;;;;;;;21.80;5.28;;;7.00;99.90;;;;;;5007917;28;20437;-82
2023/03/26 02:04:52;;;;;;;20.48;4.40;;;7.00;99.90;;;;;;5008466;28;20441;-79
2023/03/26 02:07:33;;;;;;;20.47;4.10;;;7.00;99.90;;;;;;5008293;28;20424;-81
2023/03/26 02:10:05;;;;;;;17.88;3.92;;;6.90;99.90;;;;;;5008804;28;21002;-80
2023/03/26 02:12:32;;;;;;;15.32;3.58;;;6.90;99.90;;;;;;5005822;28;20421;-80
2023/03/26 02:15:01;;;;;;;18.80;4.10;;;6.90;99.90;;;;;;5006974;28;20578;-79
2023/03/26 02:17:28;;;;;;;18.03;4.50;;;7.00;99.90;;;;;;5002972;28;20945;-79
2023/03/26 02:19:55;;;;;;;19.25;3.80;;;6.90;99.90;;;;;;5006399;28;20491;-76
2023/03/26 02:22:21;;;;;;;20.42;4.65;;;6.90;99.90;;;;;;5005861;28;20425;-81
2023/03/26 02:24:47;;;;;;;15.50;3.75;;;6.90;99.90;;;;;;5007491;28;21083;-80
2023/03/26 02:27:13;;;;;;;22.77;4.72;;;7.00;99.90;;;;;;5006787;28;20770;-82
2023/03/26 02:29:39;;;;;;;19.98;4.93;;;6.90;99.90;;;;;;5009589;28;20420;-76
2023/03/26 02:32:06;;;;;;;22.73;5.40;;;6.90;99.90;;;;;;5009154;28;20444;-82
2023/03/26 02:34:32;;;;;;;17.77;4.27;;;7.10;99.90;;;;;;5007057;28;20480;-79
2023/03/26 02:36:58;;;;;;;20.30;3.53;;;7.00;99.90;;;;;;5005049;28;20935;-76
2023/03/26 02:39:25;;;;;;;23.98;5.43;;;7.00;99.90;;;;;;5008140;28;20429;-81
2023/03/26 02:41:50;;;;;;;24.55;4.60;;;7.10;99.90;;;;;;5007431;28;20429;-77
2023/03/26 02:44:16;;;;;;;25.75;6.93;;;7.10;99.90;;;;;;5009371;28;20498;-81
2023/03/26 02:46:42;;;;;;;23.13;4.63;;;7.10;99.90;;;;;;5007109;28;20417;-81
2023/03/26 02:49:08;;;;;;;21.30;4.93;;;7.10;99.90;;;;;;5005292;28;20784;-81
2023/03/26 02:51:34;;;;;;;16.95;4.03;;;7.10;99.90;;;;;;5006411;28;20425;-79
2023/03/26 02:54:00;;;;;;;20.23;5.15;;;7.30;99.90;;;;;;5008813;28;20779;-80
2023/03/26 02:56:27;;;;;;;20.95;5.72;;;7.20;99.90;;;;;;5006154;28;20447;-82
2023/03/26 02:58:53;;;;;;;17.90;3.63;;;7.30;99.90;;;;;;4994083;28;20433;-82
2023/03/26 03:01:19;;;;;;;24.35;6.22;;;7.30;99.90;;;;;;5005774;28;20436;-80
2023/03/26 03:03:46;;;;;;;18.45;4.32;;;7.20;99.90;;;;;;5007725;28;20435;-80
2023/03/26 03:06:12;;;;;;;18.80;4.27;;;7.40;99.90;;;;;;5004984;28;20515;-76
2023/03/26 03:08:37;;;;;;;24.50;4.35;;;7.40;99.90;;;;;;4990402;28;20516;-80
2023/03/26 03:11:09;;;;;;;21.98;5.13;;;7.40;99.90;;;;;;4988355;28;20440;-81
2023/03/26 03:13:34;;;;;;;25.65;6.28;;;7.50;99.90;;;;;;5010392;28;20429;-78
2023/03/26 03:16:00;;;;;;;20.70;4.83;;;7.30;99.90;;;;;;5015281;28;20516;-80
2023/03/26 03:18:26;;;;;;;20.87;5.07;;;7.40;99.90;;;;;;5016633;28;20432;-79
2023/03/26 03:20:52;;;;;;;23.87;4.67;;;7.30;99.90;;;;;;5006566;28;20565;-76
2023/03/26 03:23:18;;;;;;;22.70;5.63;;;7.30;99.90;;;;;;5006451;28;20452;-80
2023/03/26 03:25:44;;;;;;;26.27;5.32;;;7.20;99.90;;;;;;5009434;28;20479;-80
2023/03/26 03:28:10;;;;;;;29.13;5.83;;;7.30;99.90;;;;;;5010363;28;20934;-80
2023/03/26 03:30:36;;;;;;;27.50;4.90;;;7.20;99.90;;;;;;5010879;28;20826;-80
2023/03/26 03:33:02;;;;;;;19.77;4.07;;;7.30;99.90;;;;;;5014209;28;20425;-80
2023/03/26 03:35:28;;;;;;;24.98;4.30;;;7.20;99.90;;;;;;5009719;28;20440;-81
2023/03/26 03:37:57;;;;;;;19.27;4.65;;;7.20;99.90;;;;;;5006910;28;20428;-83
2023/03/26 03:40:23;;;;;;;20.73;4.03;;;7.00;99.90;;;;;;5009152;28;20425;-82
2023/03/26 03:42:50;;;;;;;25.13;6.03;;;6.90;99.90;;;;;;4991170;28;20416;-79
2023/03/26 03:45:16;;;;;;;24.17;4.45;;;6.90;99.90;;;;;;5007788;28;20447;-81
2023/03/26 03:47:42;;;;;;;24.55;4.85;;;6.90;99.90;;;;;;5006148;28;20883;-79
2023/03/26 03:50:08;;;;;;;18.40;4.60;;;6.80;99.90;;;;;;5005290;28;20444;-82
2023/03/26 03:52:34;;;;;;;29.83;5.85;;;6.80;99.90;;;;;;5006090;28;21034;-79
2023/03/26 03:55:00;;;;;;;24.52;4.15;;;6.80;99.90;;;;;;5008508;28;20517;-81
2023/03/26 03:57:27;;;;;;;21.27;4.77;;;6.70;99.90;;;;;;5008892;28;20432;-81
2023/03/26 03:59:57;;;;;;;16.83;3.67;;;6.60;99.90;;;;;;4992328;28;20422;-75
2023/03/26 04:02:28;;;;;;;21.33;3.78;;;6.30;99.90;;;;;;5003758;28;20437;-81
2023/03/26 04:04:56;;;;;;;29.60;4.65;;;6.30;99.90;;;;;;5012956;28;20420;-79
2023/03/26 04:07:26;;;;;;;17.23;3.65;;;6.40;99.90;;;;;;5005337;28;20427;-78
2023/03/26 04:09:52;;;;;;;18.13;4.78;;;6.30;99.90;;;;;;5011662;28;20460;-81
2023/03/26 04:12:18;;;;;;;20.40;5.57;;;6.40;99.90;;;;;;5012891;28;20447;-79
2023/03/26 04:14:43;;;;;;;21.17;4.30;;;6.30;99.90;;;;;;5009882;28;20519;-81
2023/03/26 04:17:12;;;;;;;20.93;4.63;;;6.30;99.90;;;;;;5008320;28;20425;-81
2023/03/26 04:19:38;;;;;;;19.35;5.03;;;6.40;99.90;;;;;;5008773;28;20519;-78
2023/03/26 04:22:04;;;;;;;13.07;2.88;;;6.10;99.90;;;;;;5004130;28;20926;-78
2023/03/26 04:24:32;;;;;;;15.50;3.80;;;6.20;99.90;;;;;;5007484;28;20559;-79
2023/03/26 04:27:03;;;;;;;17.42;4.30;;;6.20;99.90;;;;;;5023180;28;20431;-81
2023/03/26 04:29:32;;;;;;;19.60;4.25;;;6.30;99.90;;;;;;5008033;28;20828;-82
2023/03/26 04:32:05;;;;;;;19.23;3.90;;;6.30;99.90;;;;;;5002061;28;20417;-81
2023/03/26 04:34:32;;;;;;;20.55;4.78;;;6.20;99.90;;;;;;4989358;28;20980;-81
2023/03/26 04:37:00;;;;;;;17.58;3.63;;;6.30;99.90;;;;;;5010348;28;20437;-77
2023/03/26 04:39:29;;;;;;;20.13;4.82;;;6.30;99.90;;;;;;5015095;28;20571;-80
2023/03/26 04:41:56;;;;;;;17.27;3.63;;;6.30;99.90;;;;;;5015220;28;20544;-80
2023/03/26 04:44:22;;;;;;;24.05;4.72;;;6.30;99.90;;;;;;5009976;28;20826;-78
2023/03/26 04:46:54;;;;;;;23.48;6.30;;;6.30;99.90;;;;;;5005651;28;20468;-81
2023/03/26 04:49:19;;;;;;;18.42;4.22;;;6.30;99.90;;;;;;5007626;28;20432;-81
2023/03/26 04:51:46;;;;;;;21.15;5.55;;;6.20;99.90;;;;;;4999837;28;20486;-80
2023/03/26 04:54:17;;;;;;;15.90;3.63;;;6.30;99.90;;;;;;5007903;28;20538;-78
2023/03/26 04:56:58;;;;;;;18.05;5.18;;;6.30;99.90;;;;;;5005142;28;20923;-80
2023/03/26 04:59:33;;;;;;;23.08;5.25;;;6.30;99.90;;;;;;4989410;28;20740;-81
2023/03/26 05:01:59;;;;;;;18.20;4.40;;;6.30;99.90;;;;;;5007573;28;20491;-79
2023/03/26 05:04:25;;;;;;;23.95;4.90;;;6.40;99.90;;;;;;4988786;28;20434;-83
2023/03/26 05:06:52;;;;;;;20.70;4.32;;;6.30;99.90;;;;;;5002668;28;20437;-81
2023/03/26 05:09:18;;;;;;;19.77;4.83;;;6.40;99.90;;;;;;5004492;28;20442;-81
2023/03/26 05:11:44;;;;;;;21.90;4.63;;;6.40;99.90;;;;;;5005516;28;20748;-84
2023/03/26 05:14:10;;;;;;;24.75;5.85;;;6.50;99.90;;;;;;4991287;28;20494;-83
2023/03/26 05:16:36;;;;;;;23.35;5.35;;;6.40;99.90;;;;;;5010326;28;20439;-76
2023/03/26 05:19:01;;;;;;;17.67;3.60;;;6.40;99.90;;;;;;5007591;28;20759;-80
2023/03/26 05:21:27;;;;;;;22.10;4.70;;;6.70;99.90;;;;;;5007778;28;20428;-80
2023/03/26 05:23:53;;;;;;;21.77;5.37;;;6.50;99.90;;;;;;5006444;28;21152;-80
2023/03/26 05:26:19;;;;;;;19.50;3.90;;;6.30;99.90;;;;;;5007342;28;20428;-80
2023/03/26 05:28:44;;;;;;;19.95;5.18;;;6.40;99.90;;;;;;5008052;28;20420;-80
2023/03/26 05:31:10;;;;;;;27.38;5.47;;;6.50;99.90;;;;;;5010052;28;20463;-77
2023/03/26 05:33:36;;;;;;;23.95;5.15;;;6.40;99.90;;;;;;5008069;28;20432;-81
2023/03/26 05:36:08;;;;;;;20.55;5.88;;;6.30;99.90;;;;;;5007629;28;20875;-80
2023/03/26 05:38:34;;;;;;;23.35;4.70;;;6.40;99.90;;;;;;5008278;28;20883;-76
2023/03/26 05:41:02;;;;;;;22.63;5.63;;;6.40;99.90;;;;;;5008006;28;20453;-80
2023/03/26 05:43:28;;;;;;;27.98;4.88;;;6.50;99.90;;;;;;5009296;28;20785;-82
2023/03/26 05:45:54;;;;;;;30.48;6.22;;;6.50;99.90;;;;;;5010986;28;20444;-80
2023/03/26 05:48:20;;;;;;;19.70;4.53;;;6.40;99.90;;;;;;5004758;28;20464;-82
2023/03/26 05:50:51;;;;;;;23.30;4.68;;;6.30;99.90;;;;;;5010980;28;20551;-78
2023/03/26 05:53:17;;;;;;;21.35;5.18;;;6.50;99.90;;;;;;5009337;28;20424;-81
2023/03/26 05:55:56;;;;;;;19.63;4.07;;;6.30;99.90;;;;;;5009231;28;20909;-82
2023/03/26 05:58:30;;;;;;;17.25;4.55;;;6.20;99.90;;;;;;5010217;28;20428;-80
2023/03/26 06:01:07;;;;;;;22.67;4.50;;;6.20;99.90;;;;;;5016832;28;20440;-80
2023/03/26 06:03:39;;;;;;;17.95;4.95;;;6.30;99.90;;;;;;5019545;28;20424;-80
2023/03/26 06:06:14;;;;;;;18.02;4.00;;;6.30;99.90;;;;;;5015670;28;20513;-78
2023/03/26 06:08:45;;;;;;;13.82;4.22;;;6.20;99.90;;;;;;5010528;28;20444;-81
2023/03/26 06:11:11;;;;;;;21.87;4.23;;;6.30;99.90;;;;;;5002150;28;20437;-82
2023/03/26 06:13:38;;;;;;;19.50;4.20;;;6.30;99.90;;;;;;4995917;28;20424;-79
2023/03/26 06:16:04;;;;;;;18.60;4.38;;;6.30;99.90;;;;;;5011445;28;20441;-78
2023/03/26 06:18:30;;;;;;;19.70;3.57;;;6.30;99.90;;;;;;5010577;28;20523;-81
2023/03/26 06:20:56;;;;;;;21.67;4.27;;;6.30;99.90;;;;;;5008096;28;20456;-81
2023/03/26 06:23:22;;;;;;;22.30;5.13;;;6.20;99.90;;;;;;5010999;28;20891;-80
2023/03/26 06:25:47;;;;;;;18.33;4.53;;;6.40;99.90;;;;;;5009500;28;20883;-82
2023/03/26 06:28:14;;;;;;;17.73;3.25;;;6.40;99.90;;;;;;5001020;28;20422;-79
2023/03/26 06:30:40;;;;;;;15.33;3.80;;;6.40;99.90;;;;;;4985688;28;20485;-82
2023/03/26 06:33:05;;;;;;;20.73;5.07;;;6.40;99.90;;;;;;5007284;28;20491;-80
2023/03/26 06:35:31;;;;;;;17.00;4.03;;;6.30;99.90;;;;;;5007414;28;20429;-81
2023/03/26 06:37:57;;;;;;;24.48;3.83;;;6.40;99.90;;;;;;5007760;28;20421;-78
2023/03/26 06:40:23;;;;;;;20.10;3.33;;;6.40;99.90;;;;;;5008843;28;22054;-81
2023/03/26 06:42:50;;;;;;;16.43;3.50;;;6.40;99.90;;;;;;5009552;28;20471;-82
2023/03/26 06:45:16;;;;;;;22.85;4.57;;;6.60;99.90;;;;;;5008295;28;20432;-79
2023/03/26 06:47:41;;;;;;;19.55;4.80;;;6.40;99.90;;;;;;5012786;28;20459;-81
2023/03/26 06:50:08;;;;;;;17.87;3.60;;;6.60;99.90;;;;;;5011684;28;20440;-80
2023/03/26 06:52:33;;;;;;;24.42;5.93;;;6.70;99.90;;;;;;5008825;28;20910;-76
2023/03/26 06:54:59;;;;;;;16.80;4.20;;;6.80;99.90;;;;;;5007734;28;20462;-81
2023/03/26 06:57:25;;;;;;;24.48;5.15;;;6.70;99.90;;;;;;5007204;28;20444;-81
2023/03/26 06:59:51;;;;;;;16.60;3.40;;;6.70;99.90;;;;;;5006754;28;20472;-77
2023/03/26 07:02:16;;;;;;;15.17;3.80;;;6.60;99.90;;;;;;5005395;28;20471;-78
2023/03/26 07:04:42;;;;;;;23.43;5.70;;;6.70;99.90;;;;;;5006834;28;20470;-79
2023/03/26 07:07:08;;;;;;;21.17;4.00;;;6.70;99.90;;;;;;5003827;28;20826;-78
2023/03/26 07:09:33;;;;;;;21.02;4.15;;;6.80;99.90;;;;;;5007359;28;20455;-77
2023/03/26 07:11:59;;;;;;;18.13;3.72;;;6.80;99.90;;;;;;5012408;28;20437;-78
2023/03/26 07:14:26;;;;;;;16.83;4.30;;;6.80;99.90;;;;;;5028434;28;20752;-78
2023/03/26 07:16:53;;;;;;;19.02;3.45;;;6.70;99.90;;;;;;5006459;28;20436;-77
2023/03/26 07:19:18;;;;;;;13.93;3.38;;;6.90;99.90;;;;;;5016938;28;20458;-78
2023/03/26 07:21:45;;;;;;;13.52;3.30;;;6.70;99.90;;;;;;4996950;28;20424;-79
2023/03/26 07:24:12;;;;;;;17.43;4.10;;;6.80;99.90;;;;;;5007865;28;20918;-77
2023/03/26 07:26:38;;;;;;;22.17;4.60;;;6.80;99.90;;;;;;5009905;28;20427;-77
2023/03/26 07:29:11;;;;;;;20.27;4.13;;;6.80;99.90;;;;;;5009213;28;20408;-77
2023/03/26 07:31:47;;;;;;;16.73;3.55;;;6.80;99.90;;;;;;5022503;28;20419;-78
2023/03/26 07:34:49;;;;;;;18.42;3.80;;;7.00;99.90;;;;;;5009064;28;20500;-78
2023/03/26 07:37:20;;;;;;;18.55;3.72;;;7.00;99.90;;;;;;5011795;28;20431;-78
2023/03/26 07:40:03;;;;;;;13.82;3.38;;;6.90;99.90;;;;;;5009971;28;20421;-78
2023/03/26 07:42:45;;;;;;;20.97;3.90;;;7.00;99.90;;;;;;4995261;28;20457;-77
2023/03/26 07:45:24;;;;;;;18.02;4.70;;;7.10;99.90;;;;;;5017936;28;20419;-78
2023/03/26 07:47:52;;;;;;;14.75;3.63;;;7.00;99.90;;;;;;5004363;28;20472;-77
2023/03/26 07:50:21;;;;;;;14.73;4.07;;;7.10;99.90;;;;;;5008733;28;20516;-78
2023/03/26 07:52:47;;;;;;;17.60;4.00;;;7.00;99.90;;;;;;5008094;28;20409;-78
2023/03/26 07:55:14;;;;;;;24.48;5.13;;;7.30;99.90;;;;;;5017509;28;20442;-78
2023/03/26 07:57:51;;;;;;;19.23;3.70;;;7.20;99.90;;;;;;5022521;28;20419;-78
2023/03/26 08:00:31;;;;;;;14.00;3.67;;;7.30;99.90;;;;;;5006153;28;20419;-79
2023/03/26 08:03:26;;;;;;;12.15;2.67;;;7.20;99.90;;;;;;5005737;28;20445;-78
2023/03/26 08:06:17;;;;;;;18.05;2.80;;;7.20;99.90;;;;;;4987056;28;20414;-77
2023/03/26 08:09:04;;;;;;;16.20;3.50;;;7.30;99.90;;;;;;5008199;28;20448;-79
2023/03/26 08:12:03;;;;;;;14.38;3.15;;;7.30;99.90;;;;;;4999687;28;20421;-77
2023/03/26 08:14:57;;;;;;;13.95;2.80;;;7.30;99.90;;;;;;5007822;28;20459;-79
2023/03/26 08:17:29;;;;;;;18.40;3.33;;;7.30;99.90;;;;;;5008608;28;20994;-77
2023/03/26 08:20:15;;;;;;;16.13;2.67;;;7.30;99.90;;;;;;5006631;28;20426;-76
2023/03/26 08:22:42;;;;;;;19.13;4.22;;;7.50;99.90;;;;;;5011787;28;20926;-79
2023/03/26 08:25:20;;;;;;;15.60;3.17;;;7.50;99.90;;;;;;5010137;28;20812;-77
2023/03/26 08:28:20;;;;;;;14.02;3.30;;;7.60;99.90;;;;;;5006236;28;20428;-77
2023/03/26 08:30:46;;;;;;;15.15;3.03;;;7.50;99.90;;;;;;5006147;28;20440;-77
2023/03/26 08:33:19;;;;;;;15.15;2.88;;;7.70;99.90;;;;;;4990002;28;20807;-77
2023/03/26 08:35:46;;;;;;;18.80;4.05;;;7.80;99.90;;;;;;5006364;28;20444;-80
2023/03/26 08:38:14;;;;;;;15.50;4.00;;;7.70;99.90;;;;;;5006118;28;20503;-77
2023/03/26 08:41:04;;;;;;;13.45;2.75;;;7.70;99.90;;;;;;5008620;28;20496;-77
2023/03/26 08:43:39;;;;;;;14.15;2.78;;;7.50;99.90;;;;;;5007501;28;20431;-76
2023/03/26 08:46:17;;;;;;;13.52;2.78;;;7.60;99.90;;;;;;4988520;28;20924;-80
2023/03/26 08:48:59;;;;;;;11.68;2.47;;;7.80;99.90;;;;;;5005901;28;20504;-77
2023/03/26 08:51:45;;;;;;;17.50;3.40;;;7.80;99.90;;;;;;5009925;28;20791;-77
2023/03/26 08:54:39;;;;;;;14.57;3.78;;;7.90;99.90;;;;;;5003309;28;20428;-79
2023/03/26 08:57:22;;;;;;;17.23;3.00;;;7.70;99.90;;;;;;5011013;28;20432;-81
2023/03/26 09:00:12;;;;;;;17.08;3.50;;;7.90;99.90;;;;;;4993959;28;20422;-76
2023/03/26 09:02:53;;;;;;;13.25;2.40;;;7.90;99.90;;;;;;5009584;28;20437;-78
2023/03/26 09:05:40;;;;;;;14.03;3.17;;;7.90;99.90;;;;;;5008959;28;20508;-76
2023/03/26 09:08:39;;;;;;;14.57;2.78;;;8.00;99.90;;;;;;5009774;28;20787;-77
2023/03/26 09:11:20;;;;;;;12.32;3.17;;;7.80;99.90;;;;;;5010747;28;20428;-77
2023/03/26 09:14:23;;;;;;;16.85;4.20;;;7.90;99.90;;;;;;5011162;28;20498;-78
2023/03/26 09:17:17;;;;;;;14.40;3.75;;;7.90;99.90;;;;;;5010735;28;20432;-77
2023/03/26 09:19:57;;;;;;;17.20;4.30;;;8.00;99.90;;;;;;5004033;28;20482;-77
2023/03/26 09:22:47;;;;;;;16.67;2.97;;;8.10;99.90;;;;;;5010254;28;20432;-77
2023/03/26 09:25:41;;;;;;;13.43;3.00;;;7.90;99.90;;;;;;5011309;28;20423;-78
2023/03/26 09:28:43;;;;;;;18.45;3.15;;;8.20;99.90;;;;;;5011173;28;20948;-78
2023/03/26 09:31:57;;;;;;;16.67;3.33;;;7.90;99.90;;;;;;5011419;28;20505;-78
2023/03/26 09:34:29;;;;;;;19.40;3.50;;;8.00;99.90;;;;;;4996278;28;20962;-77
2023/03/26 09:37:15;;;;;;;16.40;2.90;;;8.10;99.90;;;;;;4996123;28;20442;-79
2023/03/26 09:40:22;;;;;;;15.35;3.47;;;7.90;99.90;;;;;;4992326;28;20425;-78
2023/03/26 09:42:59;;;;;;;12.98;2.65;;;8.00;99.90;;;;;;4981153;28;20449;-76
2023/03/26 09:45:44;;;;;;;19.10;4.40;;;8.00;99.90;;;;;;4991065;28;20430;-77
2023/03/26 09:48:48;;;;;;;15.63;3.00;;;7.90;99.90;;;;;;5007284;28;20520;-78
2023/03/26 09:51:36;;;;;;;13.73;3.03;;;7.80;99.90;;;;;;5008323;28;20992;-79
2023/03/26 09:54:35;;;;;;;14.57;2.58;;;8.00;99.90;;;;;;5010998;28;20444;-80
2023/03/26 09:57:20;;;;;;;11.40;3.38;;;8.30;99.90;;;;;;5009654;28;20492;-77
2023/03/26 10:00:14;;;;;;;16.08;3.40;;;8.50;99.90;;;;;;5009318;28;20926;-78
2023/03/26 10:02:49;;;;;;;15.32;2.83;;;8.20;99.90;;;;;;5010384;28;20432;-78
2023/03/26 10:05:24;;;;;;;13.70;2.88;;;7.90;99.90;;;;;;5008885;28;20474;-79
2023/03/26 10:08:19;;;;;;;14.27;2.67;;;8.10;99.90;;;;;;5010624;28;20421;-77
2023/03/26 10:11:21;;;;;;;10.45;2.63;;;8.10;99.90;;;;;;4972167;28;20513;-79
2023/03/26 10:14:20;;;;;;;14.48;2.72;;;8.10;99.90;;;;;;5005462;28;20444;-77
2023/03/26 10:17:20;;;;;;;13.85;2.92;;;8.40;99.90;;;;;;4989799;28;20516;-78
2023/03/26 10:20:16;;;;;;;13.80;2.67;;;8.40;99.90;;;;;;4990669;28;20846;-78
2023/03/26 10:23:13;;;;;;;17.77;4.10;;;8.00;99.90;;;;;;4990628;28;20494;-79
2023/03/26 10:25:54;;;;;;;16.48;3.88;;;8.10;99.90;;;;;;4990757;28;20402;-77
2023/03/26 10:28:25;;;;;;;17.58;4.32;;;8.10;99.90;;;;;;4991304;28;20403;-77
2023/03/26 10:31:26;;;;;;;12.00;2.83;;;8.40;99.90;;;;;;4990649;28;20451;-76
2023/03/26 10:33:58;;;;;;;13.40;3.35;;;8.30;99.90;;;;;;4990872;28;20417;-76
2023/03/26 10:36:29;;;;;;;11.80;2.80;;;8.40;99.90;;;;;;5002015;28;20444;-79
2023/03/26 10:39:31;;;;;;;13.75;2.35;;;8.30;99.90;;;;;;5009830;28;20425;-79
2023/03/26 10:42:28;;;;;;;19.30;3.38;;;8.10;99.90;;;;;;5011004;28;20463;-77
2023/03/26 10:44:59;;;;;;;14.75;4.57;;;8.60;99.90;;;;;;5010121;28;20425;-78
2023/03/26 10:48:02;;;;;;;16.60;3.95;;;8.60;99.90;;;;;;5005601;28;20428;-78
2023/03/26 10:50:45;;;;;;;15.32;2.63;;;8.60;99.90;;;;;;5009768;28;20424;-78
2023/03/26 10:53:13;;;;;;;12.27;2.63;;;8.40;99.90;;;;;;5010671;28;20799;-78
2023/03/26 10:55:46;;;;;;;10.23;2.60;;;8.50;99.90;;;;;;5010710;28;20436;-79
2023/03/26 10:58:28;;;;;;;14.98;2.72;;;8.60;99.90;;;;;;5009775;28;20512;-77
2023/03/26 11:01:00;;;;;;;14.23;2.80;;;8.20;99.90;;;;;;5008637;28;20827;-77
2023/03/26 11:03:26;;;;;;;11.80;2.78;;;8.30;99.90;;;;;;5008843;28;20409;-77
2023/03/26 11:06:14;;;;;;;12.57;2.90;;;8.20;99.90;;;;;;5006724;28;20505;-78
2023/03/26 11:09:02;;;;;;;16.67;2.83;;;8.30;99.90;;;;;;5008000;28;20424;-79
2023/03/26 11:11:35;;;;;;;14.93;2.70;;;8.20;99.90;;;;;;5008441;28;20499;-77
2023/03/26 11:14:27;;;;;;;16.55;3.17;;;8.20;99.90;;;;;;5009294;28;20416;-77
2023/03/26 11:17:00;;;;;;;14.93;2.75;;;8.30;99.90;;;;;;5007770;28;20436;-77
2023/03/26 11:19:32;;;;;;;12.65;2.80;;;8.20;99.90;;;;;;5008801;28;20915;-76
2023/03/26 11:22:22;;;;;;;13.88;3.83;;;8.00;99.90;;;;;;5007900;28;20486;-79
2023/03/26 11:25:21;;;;;;;10.75;2.58;;;8.30;99.90;;;;;;5008875;28;20412;-78
2023/03/26 11:27:54;;;;;;;11.88;3.38;;;8.20;99.90;;;;;;5008770;28;20895;-77
2023/03/26 11:30:23;;;;;;;9.88;1.83;;;8.30;99.90;;;;;;5006664;28;20420;-77
2023/03/26 11:32:52;;;;;;;11.27;2.13;;;8.20;99.90;;;;;;5008609;28;20428;-78
2023/03/26 11:35:44;;;;;;;14.77;3.05;;;8.20;99.90;;;;;;5005982;28;20510;-78
2023/03/26 11:38:36;;;;;;;13.23;2.30;;;8.40;99.90;;;;;;5008241;28;20961;-78
2023/03/26 11:41:04;;;;;;;11.75;1.92;;;8.20;99.90;;;;;;5008520;28;20420;-78
2023/03/26 11:43:35;;;;;;;8.40;1.85;;;7.90;99.90;;;;;;5008405;28;20416;-78
2023/03/26 11:46:08;;;;;;;13.07;2.20;;;8.30;99.90;;;;;;5006774;28;20571;-77
2023/03/26 11:48:43;;;;;;;11.77;2.97;;;8.30;99.90;;;;;;5005760;28;20427;-80
2023/03/26 11:51:17;;;;;;;13.80;3.23;;;8.60;99.90;;;;;;5006284;28;20432;-80
2023/03/26 11:53:45;;;;;;;14.70;2.67;;;9.10;99.90;;;;;;5005490;28;20431;-75
2023/03/26 11:56:33;;;;;;;13.82;2.55;;;8.80;99.90;;;;;;5006799;28;20464;-74
2023/03/26 11:59:14;;;;;;;14.02;3.20;;;8.70;99.90;;;;;;5006370;28;20439;-77
2023/03/26 12:01:54;;;;;;;12.82;3.08;;;8.70;99.90;;;;;;5005270;28;20511;-79
2023/03/26 12:04:39;;;;;;;13.60;2.80;;;8.80;99.90;;;;;;5006443;28;20555;-79
2023/03/26 12:07:33;;;;;;;14.07;2.63;;;8.60;99.90;;;;;;5005010;28;20440;-79
2023/03/26 12:10:01;;;;;;;9.07;2.40;;;8.20;99.90;;;;;;5005587;28;20444;-77
2023/03/26 12:12:35;;;;;;;12.73;2.80;;;8.20;99.90;;;;;;4989255;28;20410;-76
2023/03/26 12:15:01;;;;;;;10.25;2.03;;;8.20;99.90;;;;;;4988139;28;20430;-77
2023/03/26 12:17:35;;;;;;;10.00;2.73;;;8.10;99.90;;;;;;5005418;28;20506;-78
2023/03/26 12:20:23;;;;;;;11.98;2.60;;;8.40;99.90;;;;;;5003135;28;21097;-79
2023/03/26 12:22:51;;;;;;;14.13;2.70;;;8.40;99.90;;;;;;5007844;28;20492;-76
2023/03/26 12:25:19;;;;;;;11.07;2.40;;;8.50;99.90;;;;;;5006407;28;20483;-78
2023/03/26 12:27:50;;;;;;;13.20;2.80;;;8.60;99.90;;;;;;4997760;28;20416;-77
2023/03/26 12:30:29;;;;;;;9.60;2.50;;;8.40;99.90;;;;;;5006326;28;20519;-78
2023/03/26 12:33:02;;;;;;;13.60;2.83;;;8.50;99.90;;;;;;5007946;28;20420;-78
2023/03/26 12:35:30;;;;;;;11.57;2.22;;;8.50;99.90;;;;;;5005762;28;20443;-78
2023/03/26 12:38:13;;;;;;;11.05;2.35;;;8.20;99.90;;;;;;4991085;28;20428;-78
2023/03/26 12:40:41;;;;;;;9.70;1.90;;;8.40;99.90;;;;;;5006826;28;20438;-76
2023/03/26 12:43:34;;;;;;;13.85;2.05;;;8.20;99.90;;;;;;5003465;28;20523;-77
2023/03/26 12:46:00;;;;;;;8.43;2.30;;;8.20;99.90;;;;;;5003863;28;20468;-80
2023/03/26 12:48:27;;;;;;;11.50;3.10;;;8.30;99.90;;;;;;5008327;28;20428;-76
2023/03/26 12:51:10;;;;;;;14.17;2.53;;;8.40;99.90;;;;;;5004479;28;20464;-77
2023/03/26 12:54:13;;;;;;;7.43;1.63;;;8.20;99.90;;;;;;5006196;28;20417;-78
2023/03/26 12:56:51;;;;;;;8.60;1.83;;;8.50;99.90;;;;;;4987175;28;20441;-79
2023/03/26 12:59:31;;;;;;;8.18;2.33;;;8.30;99.90;;;;;;5006717;28;20433;-77
2023/03/26 13:02:05;;;;;;;10.83;2.27;;;8.70;99.90;;;;;;5005976;28;20424;-78
2023/03/26 13:04:40;;;;;;;14.18;3.38;;;8.40;99.90;;;;;;5006829;28;20500;-78
2023/03/26 13:07:34;;;;;;;11.33;2.43;;;8.70;99.90;;;;;;5003519;28;20444;-81
2023/03/26 13:10:29;;;;;;;12.05;2.42;;;8.50;99.90;;;;;;5007810;28;20470;-80
2023/03/26 13:13:13;;;;;;;15.60;2.42;;;8.50;99.90;;;;;;5004030;28;20444;-76
2023/03/26 13:15:58;;;;;;;11.93;3.20;;;8.30;99.90;;;;;;5005688;28;20433;-76
2023/03/26 13:18:48;;;;;;;13.80;2.47;;;7.90;99.90;;;;;;5006630;28;20515;-78
2023/03/26 13:21:48;;;;;;;12.73;2.22;;;8.00;99.90;;;;;;5005455;28;20767;-79
2023/03/26 13:24:40;;;;;;;14.30;2.90;;;8.30;99.90;;;;;;5005997;28;20915;-78